createdAt,value
2023-01-19T00:01:56.264Z,19.55
2023-01-19T00:04:29.279Z,16.52
2023-01-19T00:06:56.260Z,18.63
2023-01-19T00:09:24.191Z,16.90
2023-01-19T00:12:01.262Z,16.33
2023-01-19T00:14:28.157Z,15.95
2023-01-19T00:16:56.196Z,18.00
2023-01-19T00:19:24.306Z,16.40
2023-01-19T00:21:52.320Z,19.48
2023-01-19T00:24:20.659Z,16.35
2023-01-19T00:26:48.306Z,17.02
2023-01-19T00:29:18.874Z,14.20
2023-01-19T00:32:14.627Z,17.70
2023-01-19T00:34:49.974Z,14.07
2023-01-19T00:37:46.052Z,17.65
2023-01-19T00:40:18.507Z,17.15
2023-01-19T00:42:48.336Z,20.65
2023-01-19T00:45:18.700Z,18.65
2023-01-19T00:47:47.818Z,16.88
2023-01-19T00:50:17.122Z,19.98
2023-01-19T00:52:45.148Z,19.17
2023-01-19T00:55:18.576Z,16.20
2023-01-19T01:01:06.020Z,18.15
2023-01-19T01:06:27.555Z,15.23
2023-01-19T01:09:00.226Z,15.85
2023-01-19T01:11:28.327Z,15.38
2023-01-19T01:13:56.218Z,15.27
2023-01-19T01:16:24.970Z,15.68
2023-01-19T01:18:52.301Z,15.63
2023-01-19T01:21:20.298Z,16.52
2023-01-19T01:23:49.260Z,18.85
2023-01-19T01:26:22.210Z,15.73
2023-01-19T01:28:50.680Z,17.27
2023-01-19T01:31:18.257Z,15.02
2023-01-19T01:36:39.792Z,15.38
2023-01-19T01:39:09.964Z,15.43
2023-01-19T01:41:40.155Z,13.98
2023-01-19T01:45:03.725Z,15.95
2023-01-19T01:47:45.707Z,14.82
2023-01-19T01:50:27.225Z,16.98
2023-01-19T01:53:06.923Z,16.17
2023-01-19T01:55:41.762Z,16.25
2023-01-19T01:58:11.347Z,19.02
2023-01-19T02:00:58.183Z,13.52
2023-01-19T02:03:32.286Z,14.88
2023-01-19T02:09:35.081Z,16.05
2023-01-19T02:12:20.675Z,19.52
2023-01-19T02:14:48.300Z,12.40
2023-01-19T02:17:25.263Z,17.60
2023-01-19T02:19:52.244Z,17.40
2023-01-19T02:22:44.953Z,13.40
2023-01-19T02:25:36.194Z,18.00
2023-01-19T02:28:13.284Z,19.10
2023-01-19T02:30:46.494Z,14.77
2023-01-19T02:33:14.263Z,14.57
2023-01-19T02:35:42.672Z,13.02
2023-01-19T02:41:06.171Z,14.15
2023-01-19T02:43:35.540Z,13.20
2023-01-19T02:46:07.334Z,16.27
2023-01-19T02:48:34.227Z,13.38
2023-01-19T02:51:11.718Z,14.02
2023-01-19T02:54:24.297Z,18.02
2023-01-19T02:57:32.707Z,14.65
2023-01-19T03:00:14.714Z,17.85
2023-01-19T03:03:05.924Z,16.88
2023-01-19T03:05:54.644Z,14.57
2023-01-19T03:08:42.527Z,15.40
2023-01-19T03:11:12.795Z,16.65
2023-01-19T03:13:54.209Z,17.33
2023-01-19T03:16:35.003Z,15.80
2023-01-19T03:19:31.910Z,16.67
2023-01-19T03:22:14.594Z,13.40
2023-01-19T03:24:45.217Z,12.60
2023-01-19T03:27:42.343Z,14.38
2023-01-19T03:30:28.187Z,13.93
2023-01-19T03:33:09.442Z,16.35
2023-01-19T03:35:41.154Z,14.75
2023-01-19T03:38:16.701Z,15.85
2023-01-19T03:46:36.429Z,14.82
2023-01-19T03:49:08.757Z,16.52
2023-01-19T03:51:44.771Z,14.35
2023-01-19T03:54:12.262Z,16.02
2023-01-19T03:56:44.834Z,15.23
2023-01-19T03:59:12.243Z,17.85
2023-01-19T04:01:40.412Z,15.45
2023-01-19T04:04:34.190Z,13.82
2023-01-19T04:07:28.504Z,18.58
2023-01-19T04:10:00.175Z,15.77
2023-01-19T04:15:20.331Z,18.40
2023-01-19T04:17:48.216Z,18.92
2023-01-19T04:20:16.794Z,16.17
2023-01-19T04:23:09.035Z,17.38
2023-01-19T04:25:38.900Z,16.73
2023-01-19T04:28:06.347Z,15.98
2023-01-19T04:30:34.236Z,16.00
2023-01-19T04:33:07.837Z,18.08
2023-01-19T04:35:40.254Z,22.58
2023-01-19T04:38:13.197Z,18.70
2023-01-19T04:40:40.601Z,22.25
2023-01-19T04:43:08.536Z,19.70
2023-01-19T04:45:39.126Z,17.13
2023-01-19T04:48:13.373Z,16.40
2023-01-19T04:50:43.141Z,16.65
2023-01-19T04:53:10.686Z,19.85
2023-01-19T04:55:38.793Z,15.57
2023-01-19T04:58:11.304Z,17.98
2023-01-19T05:00:38.257Z,17.95
2023-01-19T05:06:22.149Z,20.60
2023-01-19T05:09:15.342Z,17.52
2023-01-19T05:11:42.235Z,18.05
2023-01-19T05:14:10.921Z,20.75
2023-01-19T05:16:38.227Z,19.42
2023-01-19T05:19:06.284Z,20.60
2023-01-19T05:21:34.193Z,20.05
2023-01-19T05:24:02.682Z,22.23
2023-01-19T05:26:55.089Z,22.10
2023-01-19T05:29:22.602Z,18.73
2023-01-19T05:31:50.446Z,24.42
2023-01-19T05:34:23.522Z,20.67
2023-01-19T05:36:50.282Z,17.70
2023-01-19T05:39:23.649Z,19.90
2023-01-19T05:41:57.418Z,23.98
2023-01-19T05:44:24.227Z,15.98
2023-01-19T05:46:52.331Z,19.52
2023-01-19T05:52:12.302Z,19.33
2023-01-19T05:54:40.500Z,19.50
2023-01-19T05:57:08.477Z,22.85
2023-01-19T05:59:36.207Z,20.48
2023-01-19T06:02:28.983Z,21.17
2023-01-19T06:04:56.766Z,18.15
2023-01-19T06:07:24.597Z,24.27
2023-01-19T06:09:57.209Z,18.20
2023-01-19T06:12:24.383Z,23.20
2023-01-19T06:17:44.221Z,20.48
2023-01-19T06:20:14.060Z,20.95
2023-01-19T06:25:34.188Z,25.83
2023-01-19T06:28:06.167Z,22.10
2023-01-19T06:30:34.294Z,21.00
2023-01-19T06:33:51.953Z,22.13
2023-01-19T06:36:20.276Z,22.42
2023-01-19T06:38:48.213Z,18.35
2023-01-19T06:41:16.304Z,18.98
2023-01-19T06:43:44.215Z,20.60
2023-01-19T06:46:18.423Z,22.23
2023-01-19T06:48:46.197Z,21.33
2023-01-19T06:51:14.252Z,17.40
2023-01-19T06:53:42.177Z,17.80
2023-01-19T06:56:34.192Z,14.75
2023-01-19T06:59:02.169Z,17.20
2023-01-19T07:01:35.378Z,22.00
2023-01-19T07:04:02.160Z,19.25
2023-01-19T07:06:30.321Z,17.15
2023-01-19T07:09:06.986Z,17.50
2023-01-19T07:11:34.173Z,19.20
2023-01-19T07:14:33.977Z,20.98
2023-01-19T07:17:03.065Z,17.80
2023-01-19T07:19:31.183Z,17.25
2023-01-19T07:21:58.273Z,17.50
2023-01-19T07:24:26.259Z,16.90
2023-01-19T07:26:54.271Z,16.42
2023-01-19T07:29:27.549Z,19.48
2023-01-19T07:31:56.371Z,22.05
2023-01-19T07:34:24.303Z,19.55
2023-01-19T07:36:52.367Z,19.58
2023-01-19T07:39:24.326Z,20.67
2023-01-19T07:41:52.302Z,18.08
2023-01-19T07:44:20.223Z,19.75
2023-01-19T07:47:12.720Z,18.75
2023-01-19T07:50:13.883Z,18.52
2023-01-19T07:52:42.714Z,20.48
2023-01-19T07:55:10.205Z,18.42
2023-01-19T07:57:38.260Z,22.73
2023-01-19T08:00:08.754Z,20.33
2023-01-19T08:02:42.317Z,26.33
2023-01-19T08:05:10.219Z,21.90
2023-01-19T08:07:43.237Z,20.27
2023-01-19T08:10:15.238Z,19.58
2023-01-19T08:13:13.245Z,23.13
2023-01-19T08:15:40.270Z,20.67
2023-01-19T08:18:09.968Z,23.38
2023-01-19T08:20:38.391Z,26.80
2023-01-19T08:25:58.401Z,20.45
2023-01-19T08:28:26.597Z,22.88
2023-01-19T08:30:54.454Z,25.23
2023-01-19T08:33:23.746Z,21.50
2023-01-19T08:35:53.705Z,23.08
2023-01-19T08:38:22.862Z,19.77
2023-01-19T08:40:50.482Z,21.27
2023-01-19T08:46:10.519Z,27.85
2023-01-19T08:48:43.298Z,20.45
2023-01-19T08:51:10.299Z,20.33
2023-01-19T08:54:07.240Z,19.75
2023-01-19T08:56:34.335Z,23.27
2023-01-19T08:59:09.833Z,24.83
2023-01-19T09:01:38.494Z,20.77
2023-01-19T09:04:06.247Z,20.27
2023-01-19T09:06:34.338Z,20.02
2023-01-19T09:09:31.217Z,22.08
2023-01-19T09:11:58.206Z,20.45
2023-01-19T09:14:31.203Z,19.92
2023-01-19T09:16:59.054Z,20.90
2023-01-19T09:19:26.278Z,22.35
2023-01-19T09:21:59.770Z,21.65
2023-01-19T09:24:35.054Z,25.88
2023-01-19T09:27:02.583Z,20.83
2023-01-19T09:29:30.202Z,20.17
2023-01-19T09:31:58.264Z,26.20
2023-01-19T09:34:26.200Z,21.60
2023-01-19T09:39:46.288Z,21.23
2023-01-19T09:42:39.417Z,22.20
2023-01-19T09:45:13.213Z,19.85
2023-01-19T09:48:22.668Z,21.38
2023-01-19T09:50:50.365Z,24.17
2023-01-19T09:53:36.306Z,22.63
2023-01-19T09:56:04.592Z,22.83
2023-01-19T09:58:37.374Z,21.02
2023-01-19T10:01:34.817Z,21.35
2023-01-19T10:04:27.101Z,22.25
2023-01-19T10:07:06.621Z,21.13
2023-01-19T10:10:02.599Z,25.63
2023-01-19T10:12:52.486Z,26.35
2023-01-19T10:15:37.302Z,23.50
2023-01-19T10:18:25.674Z,25.48
2023-01-19T10:21:12.693Z,25.63
2023-01-19T10:24:25.652Z,23.63
2023-01-19T10:26:55.686Z,21.90
2023-01-19T10:29:48.335Z,25.27
2023-01-19T10:32:21.177Z,22.42
2023-01-19T10:34:49.680Z,25.20
2023-01-19T10:37:18.271Z,23.70
2023-01-19T10:39:52.128Z,23.85
2023-01-19T10:42:25.306Z,20.42
2023-01-19T10:44:52.257Z,23.92
2023-01-19T10:47:33.837Z,20.33
2023-01-19T10:50:32.190Z,26.25
2023-01-19T10:53:06.044Z,23.13
2023-01-19T10:55:39.526Z,24.00
2023-01-19T10:58:25.067Z,22.55
2023-01-19T11:00:52.477Z,26.42
2023-01-19T11:03:25.561Z,20.92
2023-01-19T11:05:55.767Z,21.98
2023-01-19T11:08:30.137Z,23.33
2023-01-19T11:11:04.288Z,18.63
2023-01-19T11:13:32.429Z,18.45
2023-01-19T11:16:25.695Z,20.10
2023-01-19T11:18:56.213Z,19.48
2023-01-19T11:21:26.727Z,17.58
2023-01-19T11:24:25.569Z,14.57
2023-01-19T11:27:02.976Z,17.27
2023-01-19T11:29:36.540Z,16.75
2023-01-19T11:32:18.362Z,15.57
2023-01-19T11:34:46.207Z,23.83
2023-01-19T11:37:20.255Z,18.92
2023-01-19T11:40:08.855Z,18.42
2023-01-19T11:42:37.192Z,20.50
2023-01-19T11:45:12.431Z,20.77
2023-01-19T11:47:51.759Z,22.83
2023-01-19T11:53:30.264Z,24.90
2023-01-19T11:56:09.202Z,20.50
2023-01-19T11:58:47.400Z,25.17
2023-01-19T12:01:32.629Z,22.60
2023-01-19T12:04:30.648Z,19.38
2023-01-19T12:07:03.124Z,16.58
2023-01-19T12:10:07.258Z,16.73
2023-01-19T12:12:36.529Z,17.20
2023-01-19T12:15:42.441Z,17.17
2023-01-19T12:18:23.298Z,18.70
2023-01-19T12:23:32.174Z,14.90
2023-01-19T12:29:12.115Z,15.82
2023-01-19T12:34:46.540Z,18.77
2023-01-19T12:37:35.633Z,15.63
2023-01-19T12:40:30.176Z,16.52
2023-01-19T12:43:24.539Z,17.83
2023-01-19T12:45:52.213Z,18.15
2023-01-19T12:48:44.228Z,13.68
2023-01-19T12:51:41.256Z,15.60
2023-01-19T12:54:21.132Z,19.65
2023-01-19T12:56:49.497Z,16.75
2023-01-19T12:59:30.369Z,23.90
2023-01-19T13:02:20.308Z,18.92
2023-01-19T13:05:16.899Z,15.07
2023-01-19T13:08:02.671Z,17.98
2023-01-19T13:10:58.061Z,15.35
2023-01-19T13:13:33.599Z,15.57
2023-01-19T13:19:52.406Z,17.30
2023-01-19T13:23:00.482Z,16.27
2023-01-19T13:25:35.604Z,15.50
2023-01-19T13:28:09.296Z,20.00
2023-01-19T13:30:37.339Z,13.60
2023-01-19T13:33:19.152Z,17.42
2023-01-19T13:35:52.955Z,14.88
2023-01-19T13:38:22.293Z,14.95
2023-01-19T13:40:51.003Z,15.43
2023-01-19T13:43:31.053Z,15.88
2023-01-19T13:46:12.905Z,13.38
2023-01-19T13:48:40.694Z,13.90
2023-01-19T13:51:17.852Z,14.98
2023-01-19T13:53:55.033Z,15.32
2023-01-19T13:56:30.080Z,16.10
2023-01-19T13:59:05.171Z,14.35
2023-01-19T14:01:32.990Z,14.27
2023-01-19T14:04:28.336Z,14.00
2023-01-19T14:07:13.178Z,15.48
2023-01-19T14:09:40.238Z,18.25
2023-01-19T14:12:08.172Z,18.08
2023-01-19T14:14:36.559Z,14.55
2023-01-19T14:17:04.578Z,14.35
2023-01-19T14:19:53.234Z,13.68
2023-01-19T14:22:20.398Z,12.05
2023-01-19T14:24:48.268Z,11.88
2023-01-19T14:27:29.391Z,13.75
2023-01-19T14:33:41.735Z,17.35
2023-01-19T14:36:16.770Z,13.32
2023-01-19T14:38:45.923Z,12.55
2023-01-19T14:41:48.483Z,13.30
2023-01-19T14:44:20.390Z,16.00
2023-01-19T14:46:54.192Z,14.25
2023-01-19T14:49:33.113Z,16.27
2023-01-19T14:52:06.367Z,13.43
2023-01-19T14:54:40.452Z,16.98
2023-01-19T14:57:13.696Z,12.70
2023-01-19T14:59:46.840Z,11.32
2023-01-19T15:02:20.387Z,12.68
2023-01-19T15:04:48.255Z,11.10
2023-01-19T15:07:19.964Z,13.95
2023-01-19T15:09:48.412Z,10.35
2023-01-19T15:12:45.248Z,11.52
2023-01-19T15:15:18.598Z,14.45
2023-01-19T15:18:17.252Z,13.82
2023-01-19T15:20:44.243Z,11.52
2023-01-19T15:23:12.937Z,8.68
2023-01-19T15:25:45.461Z,13.80
2023-01-19T15:28:14.181Z,9.00
2023-01-19T15:30:42.391Z,10.90
2023-01-19T15:33:22.440Z,12.18
2023-01-19T15:35:54.322Z,14.60
2023-01-19T15:38:23.435Z,10.52
2023-01-19T15:40:57.274Z,8.70
2023-01-19T15:43:24.174Z,9.57
2023-01-19T15:46:00.937Z,7.90
2023-01-19T15:48:28.482Z,9.48
2023-01-19T15:51:01.318Z,11.15
2023-01-19T15:56:32.204Z,7.07
2023-01-19T15:59:05.010Z,7.88
2023-01-19T16:01:33.905Z,13.10
2023-01-19T16:04:04.599Z,12.15
2023-01-19T16:06:33.270Z,9.93
2023-01-19T16:09:01.558Z,10.85
2023-01-19T16:11:34.973Z,8.00
2023-01-19T16:17:20.342Z,9.82
2023-01-19T16:19:48.180Z,11.43
2023-01-19T16:22:16.250Z,9.95
2023-01-19T16:28:10.339Z,6.47
2023-01-19T16:30:38.255Z,10.88
2023-01-19T16:36:23.130Z,9.73
2023-01-19T16:38:50.399Z,7.57
2023-01-19T16:41:21.086Z,10.23
2023-01-19T16:43:55.859Z,9.63
2023-01-19T16:46:26.737Z,10.02
2023-01-19T16:52:17.412Z,12.07
2023-01-19T16:57:55.409Z,7.95
2023-01-19T17:00:30.283Z,7.43
2023-01-19T17:02:58.382Z,11.25
2023-01-19T17:05:26.199Z,14.10
2023-01-19T17:07:54.261Z,9.18
2023-01-19T17:10:22.195Z,8.07
2023-01-19T17:12:54.220Z,7.35
2023-01-19T17:15:22.298Z,9.60
2023-01-19T17:17:54.215Z,6.97
2023-01-19T17:20:22.198Z,8.63
2023-01-19T17:22:50.276Z,12.48
2023-01-19T17:25:18.217Z,11.18
2023-01-19T17:27:46.239Z,11.75
2023-01-19T17:30:14.693Z,7.43
2023-01-19T17:32:42.621Z,8.82
2023-01-19T17:35:10.346Z,7.25
2023-01-19T17:37:38.257Z,9.75
2023-01-19T17:40:11.276Z,11.57
2023-01-19T17:42:46.931Z,13.18
2023-01-19T17:45:14.310Z,9.20
2023-01-19T17:47:42.197Z,10.65
2023-01-19T17:50:10.971Z,7.95
2023-01-19T17:52:44.423Z,6.72
2023-01-19T17:55:12.262Z,12.75
2023-01-19T17:57:40.212Z,12.52
2023-01-19T18:00:08.899Z,11.43
2023-01-19T18:02:42.406Z,15.18
2023-01-19T18:05:12.661Z,16.42
2023-01-19T18:07:40.205Z,18.67
2023-01-19T18:10:09.423Z,13.52
2023-01-19T18:12:40.959Z,11.65
2023-01-19T18:15:17.072Z,18.70
2023-01-19T18:17:44.214Z,13.43
2023-01-19T18:20:12.629Z,11.75
2023-01-19T18:22:40.365Z,12.90
2023-01-19T18:25:08.497Z,6.38
2023-01-19T18:27:36.507Z,4.13
2023-01-19T18:30:04.847Z,5.28
2023-01-19T18:32:34.513Z,8.02
2023-01-19T18:35:02.549Z,5.65
2023-01-19T18:37:30.259Z,8.18
2023-01-19T18:40:02.915Z,5.07
2023-01-19T18:42:32.311Z,5.95
2023-01-19T18:45:01.993Z,7.43
2023-01-19T18:47:34.653Z,2.83
2023-01-19T18:50:04.047Z,2.63
2023-01-19T18:52:33.331Z,5.20
2023-01-19T18:55:00.259Z,10.60
2023-01-19T18:57:28.254Z,6.65
2023-01-19T19:00:01.243Z,4.53
2023-01-19T19:02:28.386Z,5.63
2023-01-19T19:04:56.321Z,4.85
2023-01-19T19:07:24.681Z,9.02
2023-01-19T19:09:56.143Z,8.73
2023-01-19T19:12:29.422Z,4.07
2023-01-19T19:14:56.259Z,8.20
2023-01-19T19:17:24.269Z,6.10
2023-01-19T19:19:56.360Z,6.90
2023-01-19T19:22:25.570Z,5.78
2023-01-19T19:24:54.292Z,6.30
2023-01-19T19:27:22.232Z,6.43
2023-01-19T19:29:50.311Z,4.30
2023-01-19T19:35:12.669Z,6.28
2023-01-19T19:37:40.230Z,9.95
2023-01-19T19:40:09.075Z,8.70
2023-01-19T19:43:01.256Z,6.40
2023-01-19T19:45:28.338Z,5.18
2023-01-19T19:50:50.348Z,12.77
2023-01-19T19:53:23.107Z,9.10
2023-01-19T19:56:01.186Z,6.93
2023-01-19T19:58:28.742Z,10.32
2023-01-19T20:00:56.696Z,7.72
2023-01-19T20:03:27.702Z,5.13
2023-01-19T20:06:02.141Z,5.13
2023-01-19T20:08:30.341Z,3.97
2023-01-19T20:11:12.561Z,8.48
2023-01-19T20:13:42.023Z,5.65
2023-01-19T20:16:17.527Z,7.03
2023-01-19T20:18:56.657Z,5.22
2023-01-19T20:21:28.944Z,6.88
2023-01-19T20:24:01.237Z,8.80
2023-01-19T20:26:32.122Z,6.85
2023-01-19T20:29:06.229Z,2.60
2023-01-19T20:31:47.477Z,3.40
2023-01-19T20:34:23.332Z,2.47
2023-01-19T20:36:53.210Z,4.15
2023-01-19T20:39:21.774Z,4.80
2023-01-19T20:44:46.379Z,4.28
2023-01-19T20:47:18.453Z,5.75
2023-01-19T20:49:46.218Z,4.40
2023-01-19T20:52:15.423Z,1.88
2023-01-19T20:54:42.236Z,4.38
2023-01-19T20:57:10.283Z,5.03
2023-01-19T20:59:38.970Z,2.97
2023-01-19T21:02:39.620Z,6.53
2023-01-19T21:05:08.921Z,3.22
2023-01-19T21:07:36.360Z,3.10
2023-01-19T21:10:09.623Z,9.35
2023-01-19T21:12:38.379Z,2.88
2023-01-19T21:15:06.943Z,5.35
2023-01-19T21:17:34.233Z,8.60
2023-01-19T21:20:07.244Z,4.60
2023-01-19T21:22:34.270Z,9.32
2023-01-19T21:25:02.200Z,8.27
2023-01-19T21:27:32.382Z,8.23
2023-01-19T21:30:07.409Z,4.68
2023-01-19T21:32:34.461Z,3.13
2023-01-19T21:35:02.515Z,3.95
2023-01-19T21:37:32.327Z,8.75
2023-01-19T21:40:00.430Z,3.53
2023-01-19T21:42:28.454Z,7.28
2023-01-19T21:45:23.244Z,9.85
2023-01-19T21:47:50.256Z,8.93
2023-01-19T21:50:22.365Z,3.08
2023-01-19T21:52:50.300Z,4.47
2023-01-19T21:55:18.423Z,11.05
2023-01-19T21:57:51.228Z,4.55
2023-01-19T22:00:18.518Z,5.85
2023-01-19T22:03:03.135Z,5.90
2023-01-19T22:05:37.387Z,2.70
2023-01-19T22:08:06.309Z,6.38
2023-01-19T22:10:38.036Z,7.18
2023-01-19T22:13:10.165Z,7.82
2023-01-19T22:15:42.295Z,4.75
2023-01-19T22:18:10.314Z,6.38
2023-01-19T22:20:42.242Z,14.93
2023-01-19T22:23:10.329Z,7.05
2023-01-19T22:25:40.759Z,4.50
2023-01-19T22:28:08.265Z,7.57
2023-01-19T22:30:36.467Z,7.35
2023-01-19T22:33:09.240Z,6.20
2023-01-19T22:35:36.175Z,8.43
2023-01-19T22:38:04.569Z,10.88
2023-01-19T22:40:37.222Z,8.77
2023-01-19T22:43:10.232Z,8.57
2023-01-19T22:45:41.327Z,6.30
2023-01-19T22:48:13.363Z,7.43
2023-01-19T22:51:09.464Z,9.80
2023-01-19T22:53:36.359Z,6.30
2023-01-19T22:56:14.973Z,4.35
2023-01-19T22:58:49.355Z,7.13
2023-01-19T23:01:24.864Z,10.57
2023-01-19T23:03:53.217Z,8.88
2023-01-19T23:06:29.198Z,12.05
2023-01-19T23:08:58.434Z,5.43
2023-01-19T23:11:35.874Z,14.40
2023-01-19T23:14:10.243Z,9.98
2023-01-19T23:16:38.376Z,13.07
2023-01-19T23:19:06.456Z,9.20
2023-01-19T23:21:34.859Z,15.93
2023-01-19T23:24:04.813Z,11.10
2023-01-19T23:26:38.091Z,6.53
2023-01-19T23:29:14.868Z,8.13
2023-01-19T23:31:45.729Z,12.00
2023-01-19T23:34:14.426Z,6.13
2023-01-19T23:36:48.007Z,6.25
2023-01-19T23:39:19.702Z,11.57
2023-01-19T23:42:12.652Z,7.50
2023-01-19T23:44:40.350Z,4.95
2023-01-19T23:47:08.898Z,7.10
2023-01-19T23:49:36.617Z,7.40
2023-01-19T23:52:05.754Z,6.85
2023-01-19T23:54:39.520Z,8.50
2023-01-19T23:57:06.380Z,6.85
